createdAt,value
2023-07-22T00:02:09.434Z,2.60
2023-07-22T00:04:43.446Z,2.40
2023-07-22T00:07:14.668Z,2.40
2023-07-22T00:09:51.607Z,2.70
2023-07-22T00:12:34.425Z,2.10
2023-07-22T00:15:07.670Z,2.60
2023-07-22T00:17:39.960Z,2.60
2023-07-22T00:20:16.722Z,2.20
2023-07-22T00:22:51.582Z,2.30
2023-07-22T00:25:29.201Z,2.60
2023-07-22T00:28:00.868Z,2.10
2023-07-22T00:30:35.516Z,2.20
2023-07-22T00:33:08.083Z,2.30
2023-07-22T00:35:39.670Z,2.50
2023-07-22T00:38:11.880Z,2.50
2023-07-22T00:40:44.763Z,2.30
2023-07-22T00:43:15.584Z,2.80
2023-07-22T00:45:46.277Z,2.10
2023-07-22T00:48:17.926Z,1.90
2023-07-22T00:50:51.290Z,2.30
2023-07-22T00:53:21.927Z,2.50
2023-07-22T00:55:52.901Z,2.50
2023-07-22T00:58:23.544Z,2.50
2023-07-22T01:00:54.645Z,2.90
2023-07-22T01:03:26.705Z,3.30
2023-07-22T01:05:59.735Z,3.00
2023-07-22T01:08:30.252Z,2.50
2023-07-22T01:11:01.049Z,2.70
2023-07-22T01:13:34.690Z,2.70
2023-07-22T01:16:06.117Z,2.90
2023-07-22T01:18:37.234Z,2.10
2023-07-22T01:21:08.865Z,2.90
2023-07-22T01:23:41.343Z,2.90
2023-07-22T01:26:12.489Z,2.90
2023-07-22T01:28:43.072Z,2.30
2023-07-22T01:31:14.666Z,2.60
2023-07-22T01:33:48.558Z,2.50
2023-07-22T01:36:19.334Z,3.10
2023-07-22T01:38:51.343Z,2.60
2023-07-22T01:41:22.029Z,2.80
2023-07-22T01:43:52.723Z,2.70
2023-07-22T01:46:23.379Z,2.20
2023-07-22T01:48:57.305Z,2.70
2023-07-22T01:51:27.913Z,2.20
2023-07-22T01:53:58.739Z,2.20
2023-07-22T01:56:29.807Z,2.30
2023-07-22T01:59:01.586Z,2.80
2023-07-22T02:01:32.210Z,2.20
2023-07-22T02:04:04.035Z,2.70
2023-07-22T02:06:35.997Z,2.30
2023-07-22T02:09:09.289Z,2.60
2023-07-22T02:11:40.688Z,2.90
2023-07-22T02:14:14.209Z,3.00
2023-07-22T02:16:46.427Z,2.40
2023-07-22T02:19:17.097Z,2.40
2023-07-22T02:21:49.101Z,2.70
2023-07-22T02:24:19.766Z,2.10
2023-07-22T02:26:51.936Z,2.40
2023-07-22T02:29:22.901Z,2.20
2023-07-22T02:31:57.645Z,2.50
2023-07-22T02:34:28.312Z,2.00
2023-07-22T02:36:58.878Z,2.40
2023-07-22T02:39:29.724Z,2.00
2023-07-22T02:42:00.932Z,1.70
2023-07-22T02:44:31.663Z,1.90
2023-07-22T02:47:02.225Z,1.90
2023-07-22T02:49:33.054Z,2.10
2023-07-22T02:52:08.030Z,2.00
2023-07-22T02:54:45.026Z,2.20
2023-07-22T02:57:16.888Z,1.50
2023-07-22T02:59:47.231Z,1.80
2023-07-22T03:02:18.100Z,1.40
2023-07-22T03:04:48.742Z,1.70
2023-07-22T03:07:21.239Z,1.00
2023-07-22T03:09:51.882Z,1.50
2023-07-22T03:12:22.208Z,1.70
2023-07-22T03:14:57.494Z,1.60
2023-07-22T03:17:33.503Z,1.30
2023-07-22T03:20:09.872Z,1.40
2023-07-22T03:22:41.111Z,1.70
2023-07-22T03:25:12.572Z,1.20
2023-07-22T03:27:44.910Z,1.00
2023-07-22T03:30:18.536Z,1.40
2023-07-22T03:32:52.207Z,1.10
2023-07-22T03:35:23.095Z,0.90
2023-07-22T03:37:57.324Z,1.20
2023-07-22T03:40:31.640Z,1.60
2023-07-22T03:43:05.409Z,0.70
2023-07-22T03:45:37.987Z,1.00
2023-07-22T03:48:11.279Z,1.00
2023-07-22T03:50:42.231Z,0.90
2023-07-22T03:53:12.595Z,1.20
2023-07-22T03:55:43.045Z,1.20
2023-07-22T03:58:13.961Z,1.10
2023-07-22T04:00:45.824Z,1.30
2023-07-22T04:03:17.450Z,1.20
2023-07-22T04:05:56.628Z,1.60
2023-07-22T04:08:28.557Z,1.30
2023-07-22T04:11:01.346Z,1.10
2023-07-22T04:13:34.820Z,0.90
2023-07-22T04:16:06.073Z,1.00
2023-07-22T04:18:36.699Z,1.20
2023-07-22T04:21:07.098Z,1.20
2023-07-22T04:23:38.580Z,0.90
2023-07-22T04:26:10.080Z,1.00
2023-07-22T04:28:42.950Z,0.80
2023-07-22T04:31:14.149Z,1.20
2023-07-22T04:33:45.046Z,0.70
2023-07-22T04:36:15.902Z,0.80
2023-07-22T04:38:46.489Z,0.70
2023-07-22T04:41:17.106Z,0.60
2023-07-22T04:43:48.502Z,0.70
2023-07-22T04:46:19.719Z,0.90
2023-07-22T04:48:51.743Z,0.80
2023-07-22T04:51:22.217Z,0.60
2023-07-22T04:53:53.056Z,0.70
2023-07-22T04:56:25.047Z,1.00
2023-07-22T04:58:56.000Z,0.80
2023-07-22T05:01:26.985Z,1.00
2023-07-22T05:03:58.939Z,0.90
2023-07-22T05:06:31.744Z,0.90
2023-07-22T05:09:06.035Z,1.30
2023-07-22T05:11:36.401Z,0.70
2023-07-22T05:14:11.703Z,1.10
2023-07-22T05:16:42.141Z,0.80
2023-07-22T05:19:12.577Z,0.60
2023-07-22T05:21:43.895Z,0.90
2023-07-22T05:24:15.255Z,0.80
2023-07-22T05:26:58.962Z,1.20
2023-07-22T05:29:38.573Z,0.90
2023-07-22T05:32:27.363Z,1.00
2023-07-22T05:35:03.733Z,0.90
2023-07-22T05:37:36.470Z,1.00
2023-07-22T05:40:13.444Z,0.90
2023-07-22T05:42:50.107Z,1.10
2023-07-22T05:45:24.301Z,0.50
2023-07-22T05:47:57.438Z,0.80
2023-07-22T05:50:30.686Z,0.90
2023-07-22T05:53:04.896Z,0.90
2023-07-22T05:55:37.656Z,0.60
2023-07-22T05:58:18.911Z,0.80
2023-07-22T06:00:59.266Z,0.80
2023-07-22T06:03:32.173Z,0.80
2023-07-22T06:06:02.959Z,0.60
2023-07-22T06:08:34.051Z,0.90
2023-07-22T06:11:06.410Z,0.50
2023-07-22T06:13:37.560Z,0.90
2023-07-22T06:16:09.199Z,0.50
2023-07-22T06:18:41.732Z,1.20
2023-07-22T06:21:14.339Z,0.50
2023-07-22T06:23:46.515Z,1.20
2023-07-22T06:26:17.264Z,0.80
2023-07-22T06:28:48.270Z,0.90
2023-07-22T06:31:19.775Z,0.80
2023-07-22T06:33:50.780Z,0.90
2023-07-22T06:36:21.802Z,1.00
2023-07-22T06:38:52.540Z,0.90
2023-07-22T06:41:25.526Z,2.50
2023-07-22T06:43:56.753Z,1.10
2023-07-22T06:46:28.100Z,0.80
2023-07-22T06:49:00.764Z,1.40
2023-07-22T06:51:33.987Z,0.90
2023-07-22T06:54:05.111Z,0.90
2023-07-22T06:56:35.639Z,1.60
2023-07-22T06:59:09.942Z,1.20
2023-07-22T07:01:40.272Z,1.00
2023-07-22T07:04:10.848Z,1.10
2023-07-22T07:06:41.877Z,0.90
2023-07-22T07:09:13.164Z,0.90
2023-07-22T07:11:44.057Z,0.90
2023-07-22T07:14:15.203Z,1.40
2023-07-22T07:16:49.103Z,0.60
2023-07-22T07:19:19.660Z,1.30
2023-07-22T07:21:53.728Z,0.70
2023-07-22T07:24:31.929Z,1.50
2023-07-22T07:27:03.102Z,1.20
2023-07-22T07:29:52.980Z,1.10
2023-07-22T07:32:27.405Z,1.10
2023-07-22T07:35:02.315Z,1.70
2023-07-22T07:37:34.577Z,1.60
2023-07-22T07:40:07.234Z,1.90
2023-07-22T07:42:41.987Z,1.50
2023-07-22T07:45:28.172Z,1.50
2023-07-22T07:47:59.300Z,1.90
2023-07-22T07:50:33.734Z,2.00
2023-07-22T07:53:05.268Z,1.80
2023-07-22T07:55:36.181Z,1.90
2023-07-22T07:58:11.269Z,1.90
2023-07-22T08:03:16.981Z,1.60
2023-07-22T08:05:49.849Z,1.90
2023-07-22T08:08:34.727Z,1.40
2023-07-22T08:11:20.178Z,1.80
2023-07-22T08:13:57.871Z,1.90
2023-07-22T08:16:37.555Z,1.40
2023-07-22T08:19:19.732Z,1.80
2023-07-22T08:21:52.080Z,1.70
2023-07-22T08:24:23.485Z,1.70
2023-07-22T08:27:05.498Z,2.00
2023-07-22T08:29:41.428Z,2.00
2023-07-22T08:32:17.946Z,1.40
2023-07-22T08:34:54.183Z,1.90
2023-07-22T08:38:09.224Z,2.60
2023-07-22T08:41:00.653Z,2.00
2023-07-22T08:43:33.702Z,2.40
2023-07-22T08:46:05.456Z,2.30
2023-07-22T08:48:38.740Z,2.80
2023-07-22T08:51:23.768Z,3.00
2023-07-22T08:54:11.232Z,2.60
2023-07-22T08:56:47.950Z,2.30
2023-07-22T08:59:29.093Z,2.80
2023-07-22T09:02:09.376Z,2.20
2023-07-22T09:04:42.927Z,4.00
2023-07-22T09:07:35.419Z,3.10
2023-07-22T09:10:18.245Z,2.10
2023-07-22T09:12:50.312Z,2.80
2023-07-22T09:15:21.822Z,2.30
2023-07-22T09:17:54.968Z,2.20
2023-07-22T09:20:29.667Z,2.30
2023-07-22T09:23:12.580Z,3.90
2023-07-22T09:25:48.909Z,3.00
2023-07-22T09:28:22.408Z,2.40
2023-07-22T09:31:04.845Z,3.20
2023-07-22T09:33:40.022Z,3.00
2023-07-22T09:36:12.746Z,2.60
2023-07-22T09:38:44.140Z,3.40
2023-07-22T09:41:21.629Z,2.70
2023-07-22T09:43:52.277Z,2.80
2023-07-22T09:46:26.923Z,2.60
2023-07-22T09:49:07.460Z,1.70
2023-07-22T09:51:53.076Z,3.50
2023-07-22T09:54:34.213Z,2.60
2023-07-22T09:57:07.309Z,2.80
2023-07-22T09:59:39.030Z,1.80
2023-07-22T10:02:14.319Z,2.90
2023-07-22T10:04:47.635Z,3.30
2023-07-22T10:07:19.129Z,3.20
2023-07-22T10:09:51.643Z,3.80
2023-07-22T10:12:22.383Z,2.70
2023-07-22T10:14:55.371Z,3.00
2023-07-22T10:17:28.104Z,3.90
2023-07-22T10:20:05.051Z,3.30
2023-07-22T10:22:38.516Z,2.70
2023-07-22T10:25:09.940Z,3.50
2023-07-22T10:27:41.822Z,4.20
2023-07-22T10:30:13.708Z,2.80
2023-07-22T10:32:48.393Z,3.70
2023-07-22T10:35:26.176Z,3.50
2023-07-22T10:37:57.317Z,3.20
2023-07-22T10:40:32.291Z,2.70
2023-07-22T10:43:06.368Z,3.50
2023-07-22T10:45:42.624Z,3.30
2023-07-22T10:48:18.841Z,2.60
2023-07-22T10:51:01.347Z,3.10
2023-07-22T10:53:33.244Z,4.40
2023-07-22T10:56:08.884Z,3.90
2023-07-22T11:01:34.551Z,2.40
2023-07-22T11:04:13.177Z,2.80
2023-07-22T11:06:59.397Z,1.90
2023-07-22T11:09:42.103Z,3.00
2023-07-22T11:12:23.198Z,2.60
2023-07-22T11:17:37.856Z,3.40
2023-07-22T11:20:14.085Z,2.70
2023-07-22T11:22:49.033Z,2.30
2023-07-22T11:25:24.387Z,3.20
2023-07-22T11:28:08.572Z,2.40
2023-07-22T11:31:08.780Z,3.90
2023-07-22T11:34:10.303Z,3.00
2023-07-22T11:36:42.719Z,3.20
2023-07-22T11:39:15.066Z,3.50
2023-07-22T11:41:46.224Z,3.00
2023-07-22T11:47:14.272Z,2.90
2023-07-22T11:49:51.742Z,2.50
2023-07-22T11:52:24.688Z,3.10
2023-07-22T11:55:19.610Z,3.90
2023-07-22T11:58:06.802Z,3.30
2023-07-22T12:01:26.874Z,3.20
2023-07-22T12:04:02.325Z,3.30
2023-07-22T12:09:30.908Z,3.20
2023-07-22T12:12:11.170Z,3.20
2023-07-22T12:14:45.410Z,3.30
2023-07-22T12:17:22.955Z,2.90
2023-07-22T12:20:04.185Z,3.00
2023-07-22T12:22:36.742Z,3.30
2023-07-22T12:25:09.594Z,2.70
2023-07-22T12:27:40.601Z,3.10
2023-07-22T12:30:12.682Z,3.80
2023-07-22T12:32:43.708Z,3.10
2023-07-22T12:35:15.052Z,3.60
2023-07-22T12:37:47.115Z,5.40
2023-07-22T12:40:18.228Z,2.40
2023-07-22T12:42:51.559Z,3.10
2023-07-22T12:45:21.970Z,3.40
2023-07-22T12:47:53.354Z,3.50
2023-07-22T12:50:24.704Z,3.00
2023-07-22T12:52:55.654Z,2.90
2023-07-22T12:55:27.520Z,2.40
2023-07-22T12:58:05.882Z,3.10
2023-07-22T13:00:42.108Z,2.40
2023-07-22T13:03:20.427Z,3.40
2023-07-22T13:06:02.672Z,2.90
2023-07-22T13:08:36.298Z,2.30
2023-07-22T13:11:12.010Z,2.60
2023-07-22T13:13:44.419Z,2.90
2023-07-22T13:16:15.368Z,6.60
2023-07-22T13:18:51.565Z,4.90
2023-07-22T13:21:35.270Z,3.50
2023-07-22T13:24:08.261Z,3.50
2023-07-22T13:26:54.391Z,4.20
2023-07-22T13:29:25.733Z,3.00
2023-07-22T13:31:57.329Z,3.20
2023-07-22T13:34:29.457Z,3.10
2023-07-22T13:37:04.012Z,3.80
2023-07-22T13:39:36.167Z,3.60
2023-07-22T13:42:16.577Z,3.10
2023-07-22T13:44:49.780Z,6.30
2023-07-22T13:47:20.552Z,2.80
2023-07-22T13:49:54.045Z,3.80
2023-07-22T13:52:27.274Z,2.50
2023-07-22T13:54:58.235Z,3.50
2023-07-22T13:57:35.423Z,2.90
2023-07-22T14:00:09.392Z,2.80
2023-07-22T14:02:40.904Z,2.80
2023-07-22T14:05:12.253Z,4.00
2023-07-22T14:07:45.490Z,4.10
2023-07-22T14:10:16.498Z,3.50
2023-07-22T14:12:48.199Z,2.80
2023-07-22T14:15:18.982Z,3.10
2023-07-22T14:17:50.350Z,2.60
2023-07-22T14:20:24.295Z,3.20
2023-07-22T14:22:55.271Z,2.60
2023-07-22T14:25:26.884Z,3.50
2023-07-22T14:27:57.813Z,3.50
2023-07-22T14:30:28.808Z,3.20
2023-07-22T14:33:00.224Z,3.50
2023-07-22T14:35:31.171Z,2.90
2023-07-22T14:38:09.058Z,3.70
2023-07-22T14:40:41.660Z,3.90
2023-07-22T14:43:15.594Z,3.00
2023-07-22T14:45:46.825Z,3.70
2023-07-22T14:48:24.849Z,3.10
2023-07-22T14:50:55.964Z,4.10
2023-07-22T14:53:26.651Z,3.60
2023-07-22T14:55:58.040Z,3.80
2023-07-22T14:58:29.028Z,4.70
2023-07-22T15:01:03.750Z,5.70
2023-07-22T15:03:34.878Z,4.70
2023-07-22T15:06:07.990Z,2.80
2023-07-22T15:09:02.030Z,4.10
2023-07-22T15:11:40.758Z,3.60
2023-07-22T15:14:12.022Z,3.00
2023-07-22T15:16:44.109Z,4.00
2023-07-22T15:19:24.528Z,4.30
2023-07-22T15:21:59.319Z,3.40
2023-07-22T15:24:31.395Z,8.10
2023-07-22T15:27:05.002Z,8.10
2023-07-22T15:29:35.363Z,12.00
2023-07-22T15:32:07.730Z,3.90
2023-07-22T15:34:39.198Z,3.40
2023-07-22T15:37:09.886Z,3.40
2023-07-22T15:39:41.722Z,3.90
2023-07-22T15:42:12.647Z,5.50
2023-07-22T15:44:43.300Z,4.00
2023-07-22T15:47:13.930Z,4.30
2023-07-22T15:49:46.136Z,3.20
2023-07-22T15:52:16.878Z,4.40
2023-07-22T15:54:52.502Z,4.40
2023-07-22T15:59:56.165Z,5.40
2023-07-22T16:02:27.010Z,4.20
2023-07-22T16:04:57.497Z,4.00
2023-07-22T16:07:28.035Z,4.30
2023-07-22T16:10:01.755Z,4.70
2023-07-22T16:12:32.326Z,3.90
2023-07-22T16:15:07.262Z,4.50
2023-07-22T16:17:40.110Z,4.90
2023-07-22T16:20:13.765Z,5.60
2023-07-22T16:22:45.585Z,5.10
2023-07-22T16:25:16.101Z,4.80
2023-07-22T16:27:47.619Z,5.50
2023-07-22T16:30:20.614Z,4.70
2023-07-22T16:32:53.937Z,4.50
2023-07-22T16:35:26.957Z,4.40
2023-07-22T16:38:01.109Z,4.70
2023-07-22T16:40:33.439Z,4.10
2023-07-22T16:43:04.320Z,5.60
2023-07-22T16:45:34.861Z,5.40
2023-07-22T16:48:10.472Z,4.90
2023-07-22T16:50:40.947Z,3.30
2023-07-22T16:53:16.944Z,4.80
2023-07-22T16:55:48.339Z,6.10
2023-07-22T16:58:19.118Z,4.90
2023-07-22T17:00:49.968Z,3.70
2023-07-22T17:03:21.259Z,5.10
2023-07-22T17:05:54.737Z,3.40
2023-07-22T17:08:27.812Z,3.30
2023-07-22T17:10:59.629Z,5.40
2023-07-22T17:13:29.896Z,4.50
2023-07-22T17:16:02.989Z,3.40
2023-07-22T17:18:33.287Z,4.30
2023-07-22T17:21:03.850Z,4.20
2023-07-22T17:23:34.643Z,3.90
2023-07-22T17:26:05.525Z,4.30
2023-07-22T17:28:35.898Z,6.30
2023-07-22T17:31:07.553Z,4.80
2023-07-22T17:33:38.408Z,4.20
2023-07-22T17:36:10.576Z,4.20
2023-07-22T17:38:46.669Z,4.70
2023-07-22T17:41:19.286Z,4.60
2023-07-22T17:43:49.993Z,3.80
2023-07-22T17:46:20.938Z,4.00
2023-07-22T17:49:00.293Z,3.40
2023-07-22T17:51:31.766Z,3.10
2023-07-22T17:54:03.683Z,4.10
2023-07-22T17:56:37.128Z,4.40
2023-07-22T17:59:08.268Z,3.20
2023-07-22T18:01:38.695Z,4.10
2023-07-22T18:04:10.812Z,3.30
2023-07-22T18:06:44.388Z,3.60
2023-07-22T18:09:15.310Z,3.60
2023-07-22T18:11:54.293Z,3.90
2023-07-22T18:14:26.981Z,3.50
2023-07-22T18:16:57.540Z,4.10
2023-07-22T18:19:32.860Z,3.20
2023-07-22T18:22:09.160Z,3.10
2023-07-22T18:24:56.273Z,3.50
2023-07-22T18:27:31.281Z,3.20
2023-07-22T18:30:02.428Z,4.20
2023-07-22T18:32:33.996Z,3.20
2023-07-22T18:35:07.047Z,3.50
2023-07-22T18:37:39.773Z,5.90
2023-07-22T18:40:12.310Z,4.00
2023-07-22T18:42:44.832Z,3.70
2023-07-22T18:45:15.924Z,3.50
2023-07-22T18:47:47.431Z,3.90
2023-07-22T18:50:19.988Z,4.30
2023-07-22T18:52:50.418Z,3.60
2023-07-22T18:55:23.252Z,3.90
2023-07-22T18:57:56.558Z,3.00
2023-07-22T19:00:27.935Z,3.50
2023-07-22T19:03:00.350Z,3.00
2023-07-22T19:05:31.417Z,3.30
2023-07-22T19:08:06.180Z,3.00
2023-07-22T19:10:46.310Z,2.70
2023-07-22T19:13:17.350Z,3.70
2023-07-22T19:15:52.060Z,3.50
2023-07-22T19:18:22.681Z,3.10
2023-07-22T19:21:01.016Z,4.50
2023-07-22T19:23:35.667Z,3.40
2023-07-22T19:26:08.516Z,3.80
2023-07-22T19:28:42.667Z,3.40
2023-07-22T19:31:16.491Z,2.80
2023-07-22T19:33:47.914Z,3.40
2023-07-22T19:36:23.513Z,3.70
2023-07-22T19:39:00.523Z,3.40
2023-07-22T19:41:31.161Z,3.70
2023-07-22T19:44:04.939Z,4.50
2023-07-22T19:46:35.492Z,2.90
2023-07-22T19:49:06.101Z,3.00
2023-07-22T19:51:36.803Z,3.20
2023-07-22T19:54:08.723Z,4.20
2023-07-22T19:56:41.975Z,3.00
2023-07-22T19:59:12.418Z,3.90
2023-07-22T20:01:45.120Z,3.00
2023-07-22T20:04:19.719Z,3.60
2023-07-22T20:06:53.191Z,3.40
2023-07-22T20:09:24.258Z,3.50
2023-07-22T20:11:56.441Z,3.10
2023-07-22T20:14:34.042Z,4.40
2023-07-22T20:17:12.422Z,3.70
2023-07-22T20:19:52.434Z,3.70
2023-07-22T20:22:27.794Z,3.60
2023-07-22T20:24:58.126Z,4.10
2023-07-22T20:27:32.391Z,3.20
2023-07-22T20:30:04.262Z,3.70
2023-07-22T20:32:37.679Z,3.60
2023-07-22T20:35:13.996Z,3.50
2023-07-22T20:37:47.650Z,3.60
2023-07-22T20:40:19.887Z,2.80
2023-07-22T20:42:52.456Z,3.40
2023-07-22T20:45:25.813Z,4.20
2023-07-22T20:47:56.819Z,3.80
2023-07-22T20:50:27.794Z,4.40
2023-07-22T20:53:06.878Z,3.40
2023-07-22T20:55:51.238Z,3.70
2023-07-22T20:58:23.961Z,4.80
2023-07-22T21:01:02.690Z,4.60
2023-07-22T21:03:33.320Z,3.50
2023-07-22T21:06:04.046Z,3.60
2023-07-22T21:08:36.715Z,5.90
2023-07-22T21:11:12.101Z,3.70
2023-07-22T21:13:42.847Z,4.50
2023-07-22T21:16:16.700Z,4.60
2023-07-22T21:18:49.734Z,3.80
2023-07-22T21:21:23.469Z,3.50
2023-07-22T21:23:54.083Z,4.30
2023-07-22T21:26:27.697Z,4.60
2023-07-22T21:29:00.320Z,5.30
2023-07-22T21:31:32.285Z,3.80
2023-07-22T21:34:14.302Z,3.90
2023-07-22T21:36:51.823Z,4.00
2023-07-22T21:42:00.033Z,3.40
2023-07-22T21:44:32.029Z,3.80
2023-07-22T21:47:03.841Z,3.80
2023-07-22T21:49:38.629Z,3.80
2023-07-22T21:52:09.954Z,4.40
2023-07-22T21:54:40.865Z,3.60
2023-07-22T21:57:11.800Z,4.60
2023-07-22T21:59:43.657Z,3.50
2023-07-22T22:02:14.745Z,3.60
2023-07-22T22:04:53.852Z,3.80
